createdAt,value
2023-03-31T00:00:50.565Z,999.85
2023-03-31T00:01:50.579Z,999.91
2023-03-31T00:02:50.649Z,999.87
2023-03-31T00:03:50.741Z,999.90
2023-03-31T00:04:50.643Z,999.89
2023-03-31T00:05:50.636Z,999.90
2023-03-31T00:06:50.650Z,999.88
2023-03-31T00:07:50.673Z,999.84
2023-03-31T00:08:50.689Z,999.83
2023-03-31T00:09:50.694Z,999.86
2023-03-31T00:10:50.713Z,999.85
2023-03-31T00:11:50.732Z,999.83
2023-03-31T00:12:50.743Z,999.86
2023-03-31T00:13:50.793Z,999.84
2023-03-31T00:14:50.763Z,999.87
2023-03-31T00:15:51.584Z,999.83
2023-03-31T00:16:50.928Z,999.83
2023-03-31T00:17:50.862Z,999.79
2023-03-31T00:18:51.026Z,999.80
2023-03-31T00:19:50.841Z,999.78
2023-03-31T00:20:50.848Z,999.78
2023-03-31T00:21:50.863Z,999.77
2023-03-31T00:22:50.880Z,999.76
2023-03-31T00:23:50.893Z,999.73
2023-03-31T00:24:50.908Z,999.75
2023-03-31T00:25:50.918Z,999.74
2023-03-31T00:26:50.942Z,999.67
2023-03-31T00:27:50.948Z,999.68
2023-03-31T00:28:50.964Z,999.68
2023-03-31T00:29:50.981Z,999.67
2023-03-31T00:30:50.989Z,999.65
2023-03-31T00:31:51.021Z,999.64
2023-03-31T00:32:51.072Z,999.63
2023-03-31T00:33:51.045Z,999.68
2023-03-31T00:34:51.054Z,999.64
2023-03-31T00:35:51.075Z,999.64
2023-03-31T00:36:51.074Z,999.62
2023-03-31T00:37:51.091Z,999.64
2023-03-31T00:38:51.100Z,999.59
2023-03-31T00:39:51.116Z,999.63
2023-03-31T00:40:53.719Z,999.60
2023-03-31T00:41:51.146Z,999.59
2023-03-31T00:42:51.166Z,999.58
2023-03-31T00:43:51.177Z,999.54
2023-03-31T00:44:51.191Z,999.59
2023-03-31T00:45:51.303Z,999.55
2023-03-31T00:46:51.228Z,999.55
2023-03-31T00:47:51.245Z,999.53
2023-03-31T00:48:51.238Z,999.51
2023-03-31T00:49:51.263Z,999.54
2023-03-31T00:50:51.271Z,999.49
2023-03-31T00:51:51.282Z,999.53
2023-03-31T00:52:51.298Z,999.52
2023-03-31T00:53:51.311Z,999.51
2023-03-31T00:54:51.324Z,999.52
2023-03-31T00:55:51.337Z,999.51
2023-03-31T00:56:51.393Z,999.42
2023-03-31T00:57:51.368Z,999.47
2023-03-31T00:58:51.387Z,999.44
2023-03-31T00:59:51.411Z,999.41
2023-03-31T01:00:51.418Z,999.42
2023-03-31T01:01:51.420Z,999.40
2023-03-31T01:02:51.543Z,999.36
2023-03-31T01:03:51.507Z,999.37
2023-03-31T01:04:51.478Z,999.38
2023-03-31T01:05:51.476Z,999.34
2023-03-31T01:06:51.490Z,999.36
2023-03-31T01:07:51.506Z,999.32
2023-03-31T01:08:51.519Z,999.30
2023-03-31T01:09:51.535Z,999.28
2023-03-31T01:10:51.549Z,999.25
2023-03-31T01:11:51.566Z,999.20
2023-03-31T01:12:51.577Z,999.21
2023-03-31T01:13:51.590Z,999.18
2023-03-31T01:14:51.604Z,999.20
2023-03-31T01:15:51.616Z,999.21
2023-03-31T01:16:51.693Z,999.21
2023-03-31T01:17:51.837Z,999.13
2023-03-31T01:18:51.656Z,999.14
2023-03-31T01:19:51.666Z,999.11
2023-03-31T01:20:51.682Z,999.07
2023-03-31T01:21:51.695Z,999.11
2023-03-31T01:22:51.709Z,999.08
2023-03-31T01:23:51.721Z,999.04
2023-03-31T01:24:51.737Z,999.02
2023-03-31T01:25:51.748Z,999.08
2023-03-31T01:26:51.765Z,999.06
2023-03-31T01:27:51.790Z,999.06
2023-03-31T01:28:51.794Z,999.07
2023-03-31T01:29:51.805Z,999.05
2023-03-31T01:30:51.856Z,999.02
2023-03-31T01:31:51.913Z,999.03
2023-03-31T01:32:51.946Z,999.04
2023-03-31T01:33:51.862Z,999.03
2023-03-31T01:34:51.870Z,999.04
2023-03-31T01:35:51.926Z,999.00
2023-03-31T01:36:51.905Z,999.03
2023-03-31T01:37:51.910Z,998.99
2023-03-31T01:38:51.932Z,998.99
2023-03-31T01:39:51.936Z,998.97
2023-03-31T01:40:51.950Z,998.99
2023-03-31T01:41:51.960Z,998.98
2023-03-31T01:42:51.975Z,998.95
2023-03-31T01:43:52.005Z,998.93
2023-03-31T01:44:52.005Z,998.90
2023-03-31T01:45:52.037Z,998.92
2023-03-31T01:46:52.079Z,998.89
2023-03-31T01:47:52.120Z,998.91
2023-03-31T01:48:52.059Z,998.88
2023-03-31T01:49:52.068Z,998.86
2023-03-31T01:50:52.089Z,998.89
2023-03-31T01:51:52.131Z,998.88
2023-03-31T01:52:52.110Z,998.84
2023-03-31T01:53:52.123Z,998.84
2023-03-31T01:54:52.145Z,998.82
2023-03-31T01:55:52.154Z,998.78
2023-03-31T01:56:52.173Z,998.79
2023-03-31T01:57:52.176Z,998.79
2023-03-31T01:58:52.191Z,998.79
2023-03-31T01:59:52.210Z,998.76
2023-03-31T02:00:52.297Z,998.75
2023-03-31T02:01:52.247Z,998.76
2023-03-31T02:02:52.300Z,998.77
2023-03-31T02:03:52.272Z,998.75
2023-03-31T02:04:52.272Z,998.74
2023-03-31T02:05:52.283Z,998.71
2023-03-31T02:06:52.302Z,998.69
2023-03-31T02:07:52.312Z,998.71
2023-03-31T02:08:52.324Z,998.69
2023-03-31T02:09:52.344Z,998.70
2023-03-31T02:10:52.364Z,998.61
2023-03-31T02:11:52.364Z,998.59
2023-03-31T02:12:52.379Z,998.59
2023-03-31T02:13:52.393Z,998.53
2023-03-31T02:14:52.405Z,998.59
2023-03-31T02:15:52.452Z,998.59
2023-03-31T02:16:52.498Z,998.57
2023-03-31T02:17:52.456Z,998.60
2023-03-31T02:18:52.458Z,998.57
2023-03-31T02:19:52.471Z,998.57
2023-03-31T02:20:52.493Z,998.59
2023-03-31T02:21:52.509Z,998.59
2023-03-31T02:22:52.543Z,998.59
2023-03-31T02:23:52.549Z,998.57
2023-03-31T02:24:52.541Z,998.55
2023-03-31T02:25:52.552Z,998.50
2023-03-31T02:26:52.572Z,998.48
2023-03-31T02:27:52.578Z,998.51
2023-03-31T02:28:52.601Z,998.51
2023-03-31T02:29:52.610Z,998.50
2023-03-31T02:30:52.625Z,998.50
2023-03-31T02:31:52.702Z,998.51
2023-03-31T02:32:52.713Z,998.49
2023-03-31T02:33:52.665Z,998.46
2023-03-31T02:34:52.680Z,998.40
2023-03-31T02:35:52.783Z,998.44
2023-03-31T02:36:52.707Z,998.43
2023-03-31T02:37:52.720Z,998.41
2023-03-31T02:38:52.735Z,998.42
2023-03-31T02:39:52.750Z,998.40
2023-03-31T02:40:52.769Z,998.36
2023-03-31T02:41:52.774Z,998.36
2023-03-31T02:42:52.791Z,998.39
2023-03-31T02:43:52.803Z,998.38
2023-03-31T02:44:52.811Z,998.35
2023-03-31T02:45:52.866Z,998.35
2023-03-31T02:46:52.838Z,998.34
2023-03-31T02:47:52.886Z,998.32
2023-03-31T02:48:52.871Z,998.38
2023-03-31T02:49:52.882Z,998.35
2023-03-31T02:50:52.908Z,998.30
2023-03-31T02:51:52.916Z,998.28
2023-03-31T02:52:52.928Z,998.27
2023-03-31T02:53:52.939Z,998.25
2023-03-31T02:54:52.956Z,998.20
2023-03-31T02:55:52.969Z,998.17
2023-03-31T02:56:53.061Z,998.20
2023-03-31T02:57:52.999Z,998.21
2023-03-31T02:58:53.016Z,998.11
2023-03-31T02:59:53.026Z,998.19
2023-03-31T03:00:53.068Z,998.16
2023-03-31T03:01:53.050Z,998.15
2023-03-31T03:02:53.210Z,998.18
2023-03-31T03:03:53.077Z,998.18
2023-03-31T03:04:53.095Z,998.14
2023-03-31T03:05:53.110Z,998.13
2023-03-31T03:06:53.120Z,998.13
2023-03-31T03:07:53.137Z,998.10
2023-03-31T03:08:53.150Z,998.12
2023-03-31T03:09:53.166Z,998.11
2023-03-31T03:10:53.178Z,998.11
2023-03-31T03:11:53.189Z,998.07
2023-03-31T03:12:53.211Z,998.08
2023-03-31T03:13:53.222Z,998.11
2023-03-31T03:14:53.235Z,998.10
2023-03-31T03:15:53.246Z,998.07
2023-03-31T03:16:53.355Z,998.05
2023-03-31T03:17:53.362Z,998.02
2023-03-31T03:18:53.289Z,998.05
2023-03-31T03:19:53.337Z,998.02
2023-03-31T03:20:53.320Z,998.02
2023-03-31T03:21:53.332Z,998.05
2023-03-31T03:22:53.351Z,998.03
2023-03-31T03:23:53.372Z,998.01
2023-03-31T03:24:53.411Z,997.99
2023-03-31T03:25:53.400Z,997.99
2023-03-31T03:26:53.412Z,997.97
2023-03-31T03:27:53.423Z,997.92
2023-03-31T03:28:53.435Z,997.95
2023-03-31T03:29:53.453Z,997.92
2023-03-31T03:30:53.513Z,997.92
2023-03-31T03:31:53.493Z,997.90
2023-03-31T03:32:53.541Z,997.92
2023-03-31T03:33:53.518Z,997.84
2023-03-31T03:34:53.545Z,997.84
2023-03-31T03:35:53.557Z,997.82
2023-03-31T03:36:53.544Z,997.77
2023-03-31T03:37:53.557Z,997.78
2023-03-31T03:38:53.578Z,997.78
2023-03-31T03:39:53.588Z,997.77
2023-03-31T03:40:53.601Z,997.72
2023-03-31T03:41:53.612Z,997.75
2023-03-31T03:42:53.627Z,997.70
2023-03-31T03:43:53.641Z,997.73
2023-03-31T03:44:53.657Z,997.71
2023-03-31T03:45:53.705Z,997.70
2023-03-31T03:46:53.691Z,997.72
2023-03-31T03:47:53.716Z,997.71
2023-03-31T03:48:53.714Z,997.71
2023-03-31T03:49:53.726Z,997.66
2023-03-31T03:50:53.741Z,997.63
2023-03-31T03:51:53.769Z,997.65
2023-03-31T03:52:53.768Z,997.60
2023-03-31T03:53:53.780Z,997.61
2023-03-31T03:54:53.793Z,997.60
2023-03-31T03:55:53.809Z,997.57
2023-03-31T03:56:53.855Z,997.59
2023-03-31T03:57:53.838Z,997.56
2023-03-31T03:58:53.849Z,997.54
2023-03-31T03:59:53.865Z,997.54
2023-03-31T04:00:53.878Z,997.58
2023-03-31T04:01:53.916Z,997.59
2023-03-31T04:02:53.926Z,997.58
2023-03-31T04:03:53.921Z,997.54
2023-03-31T04:04:54.003Z,997.57
2023-03-31T04:05:53.946Z,997.53
2023-03-31T04:06:53.967Z,997.52
2023-03-31T04:07:53.977Z,997.52
2023-03-31T04:08:53.995Z,997.50
2023-03-31T04:09:54.006Z,997.52
2023-03-31T04:10:54.017Z,997.48
2023-03-31T04:11:54.037Z,997.48
2023-03-31T04:12:54.048Z,997.52
2023-03-31T04:13:54.060Z,997.47
2023-03-31T04:14:54.074Z,997.50
2023-03-31T04:15:54.100Z,997.51
2023-03-31T04:16:54.107Z,997.52
2023-03-31T04:17:54.178Z,997.53
2023-03-31T04:18:54.134Z,997.48
2023-03-31T04:19:54.148Z,997.48
2023-03-31T04:20:54.160Z,997.47
2023-03-31T04:21:54.175Z,997.47
2023-03-31T04:22:54.191Z,997.41
2023-03-31T04:23:54.203Z,997.40
2023-03-31T04:24:54.217Z,997.37
2023-03-31T04:25:54.232Z,997.40
2023-03-31T04:26:54.247Z,997.35
2023-03-31T04:27:54.263Z,997.35
2023-03-31T04:28:54.288Z,997.31
2023-03-31T04:29:54.284Z,997.32
2023-03-31T04:30:54.306Z,997.33
2023-03-31T04:31:54.386Z,997.32
2023-03-31T04:32:54.339Z,997.25
2023-03-31T04:33:54.340Z,997.25
2023-03-31T04:34:54.357Z,997.27
2023-03-31T04:35:54.390Z,997.27
2023-03-31T04:36:54.385Z,997.23
2023-03-31T04:37:54.398Z,997.25
2023-03-31T04:38:54.415Z,997.26
2023-03-31T04:39:54.426Z,997.24
2023-03-31T04:40:54.441Z,997.22
2023-03-31T04:41:54.456Z,997.21
2023-03-31T04:42:54.469Z,997.15
2023-03-31T04:43:54.485Z,997.20
2023-03-31T04:44:54.508Z,997.18
2023-03-31T04:45:54.592Z,997.13
2023-03-31T04:46:54.525Z,997.13
2023-03-31T04:47:54.581Z,997.13
2023-03-31T04:48:54.557Z,997.11
2023-03-31T04:49:54.570Z,997.15
2023-03-31T04:50:54.578Z,997.16
2023-03-31T04:51:54.600Z,997.12
2023-03-31T04:52:54.607Z,997.11
2023-03-31T04:53:54.690Z,997.12
2023-03-31T04:54:54.633Z,997.05
2023-03-31T04:55:54.647Z,997.04
2023-03-31T04:56:54.716Z,997.01
2023-03-31T04:57:54.674Z,997.01
2023-03-31T04:58:54.689Z,996.99
2023-03-31T04:59:54.700Z,996.96
2023-03-31T05:00:54.730Z,996.93
2023-03-31T05:01:54.732Z,996.98
2023-03-31T05:02:54.823Z,996.95
2023-03-31T05:03:54.765Z,996.95
2023-03-31T05:04:54.778Z,996.90
2023-03-31T05:05:54.790Z,996.94
2023-03-31T05:06:54.805Z,996.90
2023-03-31T05:07:54.835Z,996.87
2023-03-31T05:08:54.837Z,996.84
2023-03-31T05:09:54.844Z,996.81
2023-03-31T05:10:54.863Z,996.77
2023-03-31T05:11:54.878Z,996.74
2023-03-31T05:12:54.892Z,996.74
2023-03-31T05:13:54.915Z,996.74
2023-03-31T05:14:54.918Z,996.76
2023-03-31T05:15:54.936Z,996.73
2023-03-31T05:16:54.967Z,996.74
2023-03-31T05:17:55.003Z,996.73
2023-03-31T05:18:54.974Z,996.77
2023-03-31T05:19:54.989Z,996.81
2023-03-31T05:20:55.003Z,996.81
2023-03-31T05:21:55.018Z,996.79
2023-03-31T05:22:55.034Z,996.80
2023-03-31T05:23:55.068Z,996.78
2023-03-31T05:24:55.058Z,996.78
2023-03-31T05:25:55.076Z,996.75
2023-03-31T05:26:55.084Z,996.75
2023-03-31T05:27:55.100Z,996.72
2023-03-31T05:28:55.112Z,996.72
2023-03-31T05:29:55.128Z,996.70
2023-03-31T05:30:55.144Z,996.66
2023-03-31T05:31:55.177Z,996.62
2023-03-31T05:32:55.219Z,996.59
2023-03-31T05:33:55.185Z,996.53
2023-03-31T05:34:55.199Z,996.55
2023-03-31T05:35:55.236Z,996.52
2023-03-31T05:36:55.237Z,996.54
2023-03-31T05:37:55.237Z,996.55
2023-03-31T05:38:55.250Z,996.59
2023-03-31T05:39:55.271Z,996.59
2023-03-31T05:40:55.293Z,996.60
2023-03-31T05:41:55.297Z,996.55
2023-03-31T05:42:55.305Z,996.59
2023-03-31T05:43:55.321Z,996.55
2023-03-31T05:44:55.333Z,996.57
2023-03-31T05:45:55.375Z,996.53
2023-03-31T05:46:55.372Z,996.53
2023-03-31T05:47:55.502Z,996.52
2023-03-31T05:48:55.403Z,996.50
2023-03-31T05:49:55.402Z,996.50
2023-03-31T05:50:55.418Z,996.45
2023-03-31T05:51:55.432Z,996.43
2023-03-31T05:52:55.451Z,996.39
2023-03-31T05:53:55.460Z,996.37
2023-03-31T05:54:55.479Z,996.33
2023-03-31T05:55:55.499Z,996.29
2023-03-31T05:56:55.567Z,996.28
2023-03-31T05:57:55.554Z,996.29
2023-03-31T05:58:55.533Z,996.30
2023-03-31T05:59:55.550Z,996.29
2023-03-31T06:00:55.620Z,996.34
2023-03-31T06:01:55.737Z,996.32
2023-03-31T06:02:55.685Z,996.32
2023-03-31T06:03:55.626Z,996.32
2023-03-31T06:04:55.621Z,996.32
2023-03-31T06:05:55.637Z,996.26
2023-03-31T06:06:55.650Z,996.26
2023-03-31T06:07:55.670Z,996.27
2023-03-31T06:08:55.680Z,996.26
2023-03-31T06:09:55.692Z,996.26
2023-03-31T06:10:55.715Z,996.21
2023-03-31T06:11:55.729Z,996.21
2023-03-31T06:12:55.740Z,996.16
2023-03-31T06:13:55.756Z,996.13
2023-03-31T06:14:55.990Z,996.16
2023-03-31T06:15:55.801Z,996.15
2023-03-31T06:16:57.739Z,996.12
2023-03-31T06:17:55.885Z,996.15
2023-03-31T06:18:55.841Z,996.09
2023-03-31T06:19:55.856Z,996.03
2023-03-31T06:20:55.859Z,996.05
2023-03-31T06:21:55.868Z,996.03
2023-03-31T06:22:55.894Z,996.01
2023-03-31T06:23:55.907Z,996.01
2023-03-31T06:24:55.936Z,995.99
2023-03-31T06:25:56.169Z,995.98
2023-03-31T06:26:55.946Z,995.99
2023-03-31T06:27:55.980Z,995.93
2023-03-31T06:28:55.984Z,995.94
2023-03-31T06:29:55.989Z,995.93
2023-03-31T06:30:55.998Z,995.93
2023-03-31T06:31:56.074Z,995.91
2023-03-31T06:32:56.105Z,995.89
2023-03-31T06:33:56.039Z,995.86
2023-03-31T06:34:56.062Z,995.90
2023-03-31T06:35:56.085Z,995.89
2023-03-31T06:36:56.100Z,995.86
2023-03-31T06:37:56.106Z,995.89
2023-03-31T06:38:56.120Z,995.86
2023-03-31T06:39:56.124Z,995.85
2023-03-31T06:40:56.150Z,995.86
2023-03-31T06:41:56.157Z,995.87
2023-03-31T06:42:56.178Z,995.89
2023-03-31T06:43:56.200Z,995.87
2023-03-31T06:44:56.204Z,995.87
2023-03-31T06:45:56.488Z,995.86
2023-03-31T06:46:56.231Z,995.82
2023-03-31T06:47:56.282Z,995.81
2023-03-31T06:48:56.267Z,995.82
2023-03-31T06:49:56.286Z,995.76
2023-03-31T06:50:56.290Z,995.78
2023-03-31T06:51:56.302Z,995.77
2023-03-31T06:52:56.321Z,995.78
2023-03-31T06:53:56.332Z,995.78
2023-03-31T06:54:56.348Z,995.83
2023-03-31T06:55:56.361Z,995.82
2023-03-31T06:56:56.385Z,995.86
2023-03-31T06:57:56.404Z,995.82
2023-03-31T06:58:56.410Z,995.83
2023-03-31T06:59:56.671Z,995.83
2023-03-31T07:00:56.470Z,995.83
2023-03-31T07:01:56.507Z,995.84
2023-03-31T07:02:56.539Z,995.88
2023-03-31T07:03:56.485Z,995.78
2023-03-31T07:04:56.496Z,995.78
2023-03-31T07:05:56.509Z,995.77
2023-03-31T07:06:56.525Z,995.75
2023-03-31T07:07:56.560Z,995.74
2023-03-31T07:08:56.554Z,995.74
2023-03-31T07:09:56.571Z,995.70
2023-03-31T07:10:56.590Z,995.70
2023-03-31T07:11:57.012Z,995.70
2023-03-31T07:12:56.623Z,995.66
2023-03-31T07:13:56.630Z,995.61
2023-03-31T07:14:56.647Z,995.58
2023-03-31T07:15:56.732Z,995.58
2023-03-31T07:16:56.730Z,995.53
2023-03-31T07:17:56.781Z,995.52
2023-03-31T07:18:56.717Z,995.51
2023-03-31T07:19:56.730Z,995.53
2023-03-31T07:20:56.747Z,995.57
2023-03-31T07:21:56.790Z,995.57
2023-03-31T07:22:56.780Z,995.57
2023-03-31T07:23:56.795Z,995.55
2023-03-31T07:24:56.809Z,995.59
2023-03-31T07:25:56.840Z,995.58
2023-03-31T07:26:56.843Z,995.55
2023-03-31T07:27:56.885Z,995.53
2023-03-31T07:28:56.933Z,995.56
2023-03-31T07:29:56.903Z,995.55
2023-03-31T07:30:56.915Z,995.52
2023-03-31T07:31:56.989Z,995.52
2023-03-31T07:32:57.001Z,995.50
2023-03-31T07:33:56.964Z,995.47
2023-03-31T07:34:56.982Z,995.54
2023-03-31T07:36:10.083Z,995.45
2023-03-31T07:36:57.043Z,995.41
2023-03-31T07:37:57.035Z,995.43
2023-03-31T07:38:57.063Z,995.41
2023-03-31T07:39:57.075Z,995.38
2023-03-31T07:41:07.727Z,995.36
2023-03-31T07:41:57.120Z,995.39
2023-03-31T07:42:57.154Z,995.35
2023-03-31T07:43:57.148Z,995.31
2023-03-31T07:44:57.164Z,995.29
2023-03-31T07:45:57.221Z,995.29
2023-03-31T07:46:57.209Z,995.29
2023-03-31T07:47:57.251Z,995.31
2023-03-31T07:48:57.237Z,995.30
2023-03-31T07:49:57.260Z,995.32
2023-03-31T07:50:57.274Z,995.31
2023-03-31T07:51:57.295Z,995.35
2023-03-31T07:52:57.311Z,995.29
2023-03-31T07:53:57.329Z,995.33
2023-03-31T07:54:57.349Z,995.29
2023-03-31T07:55:57.368Z,995.22
2023-03-31T07:56:57.438Z,995.26
2023-03-31T07:57:57.407Z,995.23
2023-03-31T07:58:57.993Z,995.23
2023-03-31T07:59:57.440Z,995.23
2023-03-31T08:00:57.463Z,995.25
2023-03-31T08:01:57.522Z,995.25
2023-03-31T08:02:57.519Z,995.23
2023-03-31T08:03:57.575Z,995.22
2023-03-31T08:04:57.532Z,995.20
2023-03-31T08:05:57.551Z,995.18
2023-03-31T08:06:57.592Z,995.17
2023-03-31T08:07:57.593Z,995.14
2023-03-31T08:08:57.611Z,995.16
2023-03-31T08:09:57.630Z,995.18
2023-03-31T08:10:57.646Z,995.12
2023-03-31T08:11:57.669Z,995.10
2023-03-31T08:12:57.685Z,995.08
2023-03-31T08:13:57.710Z,995.04
2023-03-31T08:14:57.743Z,995.05
2023-03-31T08:15:57.797Z,995.04
2023-03-31T08:16:57.789Z,995.02
2023-03-31T08:17:57.803Z,995.01
2023-03-31T08:18:57.801Z,994.99
2023-03-31T08:19:59.508Z,994.94
2023-03-31T08:20:57.843Z,995.01
2023-03-31T08:21:57.862Z,994.97
2023-03-31T08:22:57.877Z,995.00
2023-03-31T08:23:57.895Z,994.99
2023-03-31T08:24:57.925Z,994.97
2023-03-31T08:25:57.936Z,995.02
2023-03-31T08:26:57.954Z,995.02
2023-03-31T08:27:57.982Z,995.04
2023-03-31T08:28:57.992Z,995.02
2023-03-31T08:29:58.011Z,995.04
2023-03-31T08:30:58.034Z,994.99
2023-03-31T08:31:58.094Z,994.89
2023-03-31T08:32:58.115Z,994.82
2023-03-31T08:33:58.089Z,994.83
2023-03-31T08:34:58.115Z,994.78
2023-03-31T08:35:58.137Z,994.80
2023-03-31T08:36:58.153Z,994.83
2023-03-31T08:37:58.171Z,994.81
2023-03-31T08:38:58.191Z,994.79
2023-03-31T08:39:58.212Z,994.81
2023-03-31T08:40:58.230Z,994.74
2023-03-31T08:41:58.248Z,994.71
2023-03-31T08:42:58.275Z,994.68
2023-03-31T08:43:58.299Z,994.64
2023-03-31T08:44:58.317Z,994.60
2023-03-31T08:45:58.368Z,994.62
2023-03-31T08:46:58.357Z,994.62
2023-03-31T08:47:58.414Z,994.61
2023-03-31T08:48:58.392Z,994.64
2023-03-31T08:49:58.423Z,994.62
2023-03-31T08:50:58.437Z,994.63
2023-03-31T08:51:58.456Z,994.62
2023-03-31T08:52:58.477Z,994.60
2023-03-31T08:53:58.497Z,994.59
2023-03-31T08:54:58.523Z,994.59
2023-03-31T08:55:58.547Z,994.54
2023-03-31T08:56:58.588Z,994.53
2023-03-31T08:57:58.583Z,994.57
2023-03-31T08:58:58.635Z,994.58
2023-03-31T08:59:58.629Z,994.57
2023-03-31T09:00:58.674Z,994.54
2023-03-31T09:01:58.680Z,994.49
2023-03-31T09:02:58.801Z,994.48
2023-03-31T09:03:58.847Z,994.46
2023-03-31T09:04:58.722Z,994.47
2023-03-31T09:06:00.970Z,994.47
2023-03-31T09:06:58.767Z,994.41
2023-03-31T09:07:58.788Z,994.34
2023-03-31T09:08:58.807Z,994.30
2023-03-31T09:09:58.830Z,994.31
2023-03-31T09:10:58.854Z,994.25
2023-03-31T09:11:58.868Z,994.31
2023-03-31T09:12:58.908Z,994.31
2023-03-31T09:13:58.924Z,994.27
2023-03-31T09:14:58.969Z,994.27
2023-03-31T09:15:58.955Z,994.27
2023-03-31T09:16:59.047Z,994.28
2023-03-31T09:17:59.038Z,994.31
2023-03-31T09:18:59.018Z,994.29
2023-03-31T09:19:59.049Z,994.31
2023-03-31T09:20:59.064Z,994.33
2023-03-31T09:21:59.086Z,994.28
2023-03-31T09:22:59.092Z,994.28
2023-03-31T09:23:59.117Z,994.32
2023-03-31T09:24:59.152Z,994.33
2023-03-31T09:25:59.162Z,994.33
2023-03-31T09:26:59.178Z,994.36
2023-03-31T09:27:59.198Z,994.33
2023-03-31T09:28:59.232Z,994.30
2023-03-31T09:29:59.240Z,994.25
2023-03-31T09:30:59.261Z,994.19
2023-03-31T09:31:59.298Z,994.21
2023-03-31T09:32:59.320Z,994.13
2023-03-31T09:33:59.323Z,994.10
2023-03-31T09:34:59.346Z,994.10
2023-03-31T09:35:59.396Z,994.09
2023-03-31T09:36:59.387Z,994.07
2023-03-31T09:37:59.407Z,994.01
2023-03-31T09:38:59.427Z,994.02
2023-03-31T09:39:59.450Z,994.04
2023-03-31T09:40:59.484Z,993.98
2023-03-31T09:41:59.494Z,993.93
2023-03-31T09:42:59.531Z,993.92
2023-03-31T09:43:59.533Z,993.81
2023-03-31T09:44:59.556Z,993.79
2023-03-31T09:46:09.289Z,993.79
2023-03-31T09:46:59.628Z,993.80
2023-03-31T09:47:59.664Z,993.86
2023-03-31T09:48:59.642Z,993.84
2023-03-31T09:49:59.665Z,993.85
2023-03-31T09:50:59.678Z,993.81
2023-03-31T09:51:59.705Z,993.78
2023-03-31T09:52:59.737Z,993.78
2023-03-31T09:53:59.744Z,993.78
2023-03-31T09:54:59.763Z,993.72
2023-03-31T09:55:59.783Z,993.69
2023-03-31T09:56:59.856Z,993.66
2023-03-31T09:57:59.827Z,993.55
2023-03-31T09:58:59.886Z,993.54
2023-03-31T09:59:59.870Z,993.47
2023-03-31T10:00:59.903Z,993.48
2023-03-31T10:02:00.061Z,993.38
2023-03-31T10:02:59.957Z,993.50
2023-03-31T10:03:59.985Z,993.50
2023-03-31T10:04:59.997Z,993.47
2023-03-31T10:06:00.022Z,993.48
2023-03-31T10:07:00.017Z,993.45
2023-03-31T10:08:00.044Z,993.46
2023-03-31T10:09:00.144Z,993.46
2023-03-31T10:10:00.210Z,993.50
2023-03-31T10:11:00.150Z,993.42
2023-03-31T10:12:00.176Z,993.46
2023-03-31T10:13:00.256Z,993.45
2023-03-31T10:14:00.202Z,993.47
2023-03-31T10:15:00.192Z,993.44
2023-03-31T10:16:00.263Z,993.44
2023-03-31T10:17:00.231Z,993.45
2023-03-31T10:18:00.275Z,993.45
2023-03-31T10:19:00.262Z,993.50
2023-03-31T10:20:00.296Z,993.53
2023-03-31T10:21:00.308Z,993.55
2023-03-31T10:22:00.324Z,993.57
2023-03-31T10:23:00.345Z,993.58
2023-03-31T10:24:00.360Z,993.47
2023-03-31T10:25:00.382Z,993.45
2023-03-31T10:26:00.405Z,993.38
2023-03-31T10:27:00.425Z,993.38
2023-03-31T10:28:00.443Z,993.36
2023-03-31T10:29:00.463Z,993.34
2023-03-31T10:30:00.510Z,993.28
2023-03-31T10:31:00.533Z,993.25
2023-03-31T10:32:00.523Z,993.23
2023-03-31T10:33:08.479Z,993.15
2023-03-31T10:34:00.562Z,993.19
2023-03-31T10:35:00.596Z,993.19
2023-03-31T10:36:00.711Z,993.18
2023-03-31T10:37:00.627Z,993.16
2023-03-31T10:38:00.647Z,993.07
2023-03-31T10:39:00.668Z,993.19
2023-03-31T10:40:00.687Z,993.19
2023-03-31T10:41:00.794Z,993.20
2023-03-31T10:42:00.733Z,993.21
2023-03-31T10:43:00.747Z,993.21
2023-03-31T10:44:00.796Z,993.19
2023-03-31T10:45:00.793Z,993.18
2023-03-31T10:46:00.811Z,993.20
2023-03-31T10:47:00.898Z,993.19
2023-03-31T10:48:00.893Z,993.16
2023-03-31T10:49:00.874Z,993.17
2023-03-31T10:50:00.889Z,993.22
2023-03-31T10:51:00.911Z,993.21
2023-03-31T10:52:00.950Z,993.21
2023-03-31T10:53:00.957Z,993.26
2023-03-31T10:54:01.016Z,993.34
2023-03-31T10:55:01.011Z,993.31
2023-03-31T10:56:01.012Z,993.30
2023-03-31T10:57:01.071Z,993.21
2023-03-31T10:58:01.049Z,993.23
2023-03-31T10:59:06.028Z,993.18
2023-03-31T11:00:01.094Z,993.15
2023-03-31T11:01:01.110Z,993.07
2023-03-31T11:02:01.145Z,993.09
2023-03-31T11:03:01.270Z,993.09
2023-03-31T11:04:01.231Z,993.08
2023-03-31T11:05:01.191Z,993.04
2023-03-31T11:06:01.212Z,993.04
2023-03-31T11:07:01.253Z,993.08
2023-03-31T11:08:01.256Z,993.07
2023-03-31T11:09:01.284Z,993.01
2023-03-31T11:10:01.304Z,993.00
2023-03-31T11:11:01.320Z,993.02
2023-03-31T11:12:01.356Z,992.98
2023-03-31T11:13:01.366Z,992.98
2023-03-31T11:14:01.378Z,993.00
2023-03-31T11:15:01.402Z,992.92
2023-03-31T11:16:01.577Z,992.86
2023-03-31T11:17:01.461Z,992.84
2023-03-31T11:18:01.486Z,992.79
2023-03-31T11:19:01.491Z,992.73
2023-03-31T11:20:01.508Z,992.65
2023-03-31T11:21:01.526Z,992.62
2023-03-31T11:22:01.563Z,992.60
2023-03-31T11:23:01.569Z,992.65
2023-03-31T11:24:01.599Z,992.61
2023-03-31T11:25:01.619Z,992.59
2023-03-31T11:26:01.630Z,992.58
2023-03-31T11:27:01.653Z,992.51
2023-03-31T11:28:01.689Z,992.47
2023-03-31T11:29:01.705Z,992.49
2023-03-31T11:30:01.746Z,992.50
2023-03-31T11:31:01.739Z,992.46
2023-03-31T11:32:01.865Z,992.45
2023-03-31T11:33:01.854Z,992.45
2023-03-31T11:34:01.834Z,992.35
2023-03-31T11:35:01.830Z,992.33
2023-03-31T11:36:01.862Z,992.28
2023-03-31T11:37:01.895Z,992.29
2023-03-31T11:38:01.925Z,992.30
2023-03-31T11:39:01.909Z,992.32
2023-03-31T11:40:01.953Z,992.24
2023-03-31T11:41:01.958Z,992.26
2023-03-31T11:42:01.983Z,992.25
2023-03-31T11:43:01.997Z,992.26
2023-03-31T11:44:02.025Z,992.22
2023-03-31T11:45:02.049Z,992.20
2023-03-31T11:46:02.073Z,992.18
2023-03-31T11:47:02.082Z,992.13
2023-03-31T11:48:02.110Z,992.09
2023-03-31T11:49:02.125Z,992.09
2023-03-31T11:50:02.146Z,992.04
2023-03-31T11:51:02.164Z,992.11
2023-03-31T11:52:02.188Z,992.04
2023-03-31T11:53:02.211Z,992.03
2023-03-31T11:54:02.241Z,992.03
2023-03-31T11:55:03.316Z,992.02
2023-03-31T11:56:02.283Z,991.99
2023-03-31T11:57:02.331Z,992.03
2023-03-31T11:58:02.320Z,992.02
2023-03-31T11:59:02.340Z,992.03
2023-03-31T12:00:02.358Z,992.11
2023-03-31T12:01:03.406Z,992.09
2023-03-31T12:02:02.407Z,992.10
2023-03-31T12:03:02.522Z,992.09
2023-03-31T12:04:02.531Z,992.13
2023-03-31T12:05:02.485Z,992.02
2023-03-31T12:06:02.549Z,992.08
2023-03-31T12:07:02.646Z,992.08
2023-03-31T12:08:02.520Z,992.01
2023-03-31T12:09:02.538Z,991.94
2023-03-31T12:10:02.587Z,991.94
2023-03-31T12:11:02.599Z,992.00
2023-03-31T12:12:02.616Z,991.91
2023-03-31T12:13:03.315Z,991.91
2023-03-31T12:14:02.645Z,991.87
2023-03-31T12:15:02.662Z,991.87
2023-03-31T12:16:02.705Z,991.90
2023-03-31T12:17:02.707Z,991.86
2023-03-31T12:18:02.735Z,991.86
2023-03-31T12:19:02.756Z,991.78
2023-03-31T12:20:02.799Z,991.81
2023-03-31T12:21:02.813Z,991.76
2023-03-31T12:22:02.829Z,991.77
2023-03-31T12:23:02.833Z,991.76
2023-03-31T12:24:02.869Z,991.73
2023-03-31T12:25:02.885Z,991.66
2023-03-31T12:26:02.969Z,991.64
2023-03-31T12:27:02.919Z,991.68
2023-03-31T12:28:02.959Z,991.65
2023-03-31T12:29:02.984Z,991.57